createdAt,value
2022-11-03T00:01:43.364Z,7.50
2022-11-03T00:04:14.751Z,7.60
2022-11-03T00:06:43.350Z,7.50
2022-11-03T00:09:15.399Z,7.40
2022-11-03T00:11:43.579Z,7.30
2022-11-03T00:14:11.991Z,7.30
2022-11-03T00:16:39.753Z,7.40
2022-11-03T00:19:07.563Z,7.40
2022-11-03T00:21:34.592Z,7.40
2022-11-03T00:24:02.804Z,7.40
2022-11-03T00:26:31.686Z,7.40
2022-11-03T00:29:03.446Z,7.40
2022-11-03T00:31:33.135Z,7.40
2022-11-03T00:34:00.921Z,7.50
2022-11-03T00:36:33.179Z,7.50
2022-11-03T00:39:00.046Z,7.60
2022-11-03T00:41:27.320Z,7.60
2022-11-03T00:43:54.248Z,7.60
2022-11-03T00:46:22.552Z,7.60
2022-11-03T00:48:49.951Z,7.60
2022-11-03T00:51:17.917Z,7.60
2022-11-03T00:53:49.184Z,7.70
2022-11-03T00:56:24.659Z,7.70
2022-11-03T00:58:52.332Z,7.70
2022-11-03T01:01:21.795Z,7.70
2022-11-03T01:04:10.275Z,7.60
2022-11-03T01:06:51.914Z,7.50
2022-11-03T01:09:18.633Z,7.50
2022-11-03T01:11:50.825Z,7.40
2022-11-03T01:14:17.540Z,7.30
2022-11-03T01:16:44.417Z,7.20
2022-11-03T01:19:11.243Z,7.10
2022-11-03T01:21:38.011Z,7.10
2022-11-03T01:24:05.285Z,7.10
2022-11-03T01:26:32.570Z,7.00
2022-11-03T01:29:00.714Z,6.90
2022-11-03T01:31:28.491Z,6.90
2022-11-03T01:33:56.560Z,6.90
2022-11-03T01:36:24.355Z,6.90
2022-11-03T01:38:51.158Z,6.90
2022-11-03T01:41:21.173Z,6.90
2022-11-03T01:43:51.930Z,6.90
2022-11-03T01:46:27.618Z,6.90
2022-11-03T01:49:00.811Z,6.80
2022-11-03T01:51:30.270Z,6.80
2022-11-03T01:54:00.165Z,6.80
2022-11-03T01:56:29.326Z,6.80
2022-11-03T01:58:56.366Z,6.80
2022-11-03T02:01:23.676Z,6.70
2022-11-03T02:03:56.753Z,6.70
2022-11-03T02:06:27.205Z,6.70
2022-11-03T02:09:01.790Z,6.70
2022-11-03T02:11:47.865Z,6.70
2022-11-03T02:14:15.114Z,6.60
2022-11-03T02:16:48.653Z,6.60
2022-11-03T02:19:41.004Z,6.50
2022-11-03T02:22:33.269Z,6.60
2022-11-03T02:25:32.193Z,6.50
2022-11-03T02:27:59.951Z,6.40
2022-11-03T02:30:30.395Z,6.40
2022-11-03T02:33:11.659Z,6.50
2022-11-03T02:35:51.267Z,6.40
2022-11-03T02:38:20.703Z,6.40
2022-11-03T02:40:52.136Z,6.40
2022-11-03T02:43:21.190Z,6.40
2022-11-03T02:45:50.272Z,6.50
2022-11-03T02:48:18.745Z,6.50
2022-11-03T02:50:47.808Z,6.50
2022-11-03T02:53:15.765Z,6.50
2022-11-03T02:56:03.589Z,6.40
2022-11-03T02:58:48.059Z,6.30
2022-11-03T03:01:24.236Z,6.30
2022-11-03T03:03:59.558Z,6.20
2022-11-03T03:06:34.403Z,6.20
2022-11-03T03:09:05.522Z,6.20
2022-11-03T03:11:38.277Z,6.10
2022-11-03T03:14:34.458Z,6.20
2022-11-03T03:17:06.087Z,6.20
2022-11-03T03:19:59.391Z,6.10
2022-11-03T03:22:35.917Z,6.00
2022-11-03T03:25:11.526Z,6.00
2022-11-03T03:27:43.325Z,5.90
2022-11-03T03:30:11.198Z,5.90
2022-11-03T03:32:43.425Z,6.00
2022-11-03T03:35:13.855Z,6.00
2022-11-03T03:37:45.269Z,6.00
2022-11-03T03:40:16.644Z,6.00
2022-11-03T03:42:46.604Z,6.00
2022-11-03T03:45:14.498Z,6.00
2022-11-03T03:47:41.420Z,5.90
2022-11-03T03:50:08.564Z,5.80
2022-11-03T03:52:36.795Z,5.80
2022-11-03T03:55:04.119Z,5.90
2022-11-03T03:57:32.027Z,5.90
2022-11-03T03:59:58.834Z,5.90
2022-11-03T04:02:25.627Z,5.80
2022-11-03T04:04:52.616Z,5.90
2022-11-03T04:07:42.503Z,5.80
2022-11-03T04:10:11.019Z,5.80
2022-11-03T04:12:58.434Z,5.80
2022-11-03T04:15:43.898Z,5.80
2022-11-03T04:18:29.603Z,5.80
2022-11-03T04:21:15.062Z,5.80
2022-11-03T04:23:41.749Z,5.70
2022-11-03T04:26:13.991Z,5.70
2022-11-03T04:28:42.352Z,5.70
2022-11-03T04:31:14.060Z,5.70
2022-11-03T04:33:41.794Z,5.70
2022-11-03T04:36:18.775Z,5.70
2022-11-03T04:38:45.679Z,5.70
2022-11-03T04:41:24.623Z,5.70
2022-11-03T04:43:55.379Z,5.70
2022-11-03T04:46:27.477Z,5.60
2022-11-03T04:48:57.137Z,5.60
2022-11-03T04:51:27.733Z,5.60
2022-11-03T04:53:56.631Z,5.60
2022-11-03T04:56:24.913Z,5.60
2022-11-03T04:58:52.781Z,5.60
2022-11-03T05:01:24.267Z,5.60
2022-11-03T05:03:54.377Z,5.60
2022-11-03T05:06:24.274Z,5.60
2022-11-03T05:08:55.054Z,5.60
2022-11-03T05:11:25.974Z,5.60
2022-11-03T05:13:52.908Z,5.40
2022-11-03T05:16:20.247Z,5.40
2022-11-03T05:18:49.627Z,5.50
2022-11-03T05:21:18.997Z,5.40
2022-11-03T05:23:52.496Z,5.50
2022-11-03T05:26:29.897Z,5.50
2022-11-03T05:29:20.831Z,5.60
2022-11-03T05:31:48.800Z,5.60
2022-11-03T05:34:30.664Z,5.70
2022-11-03T05:37:07.085Z,5.70
2022-11-03T05:39:43.781Z,5.70
2022-11-03T05:42:22.828Z,5.70
2022-11-03T05:44:51.489Z,5.70
2022-11-03T05:47:21.462Z,5.70
2022-11-03T05:49:50.146Z,5.80
2022-11-03T05:52:22.936Z,5.80
2022-11-03T05:54:50.635Z,5.70
2022-11-03T05:57:18.387Z,5.70
2022-11-03T05:59:50.990Z,5.80
2022-11-03T06:02:37.965Z,5.80
2022-11-03T06:05:20.148Z,5.80
2022-11-03T06:07:48.686Z,5.80
2022-11-03T06:10:27.867Z,5.80
2022-11-03T06:12:59.346Z,5.70
2022-11-03T06:15:30.913Z,5.70
2022-11-03T06:17:58.119Z,5.70
2022-11-03T06:20:25.353Z,5.60
2022-11-03T06:22:55.493Z,5.70
2022-11-03T06:25:31.589Z,5.70
2022-11-03T06:28:06.587Z,5.70
2022-11-03T06:30:36.044Z,5.80
2022-11-03T06:33:21.634Z,5.80
2022-11-03T06:35:50.534Z,5.90
2022-11-03T06:38:24.240Z,5.90
2022-11-03T06:40:52.312Z,5.90
2022-11-03T06:43:28.733Z,6.00
2022-11-03T06:45:58.708Z,6.00
2022-11-03T06:48:28.418Z,6.00
2022-11-03T06:50:56.901Z,6.10
2022-11-03T06:53:27.608Z,6.20
2022-11-03T06:55:55.501Z,6.20
2022-11-03T06:58:36.698Z,6.30
2022-11-03T07:01:21.832Z,6.30
2022-11-03T07:03:52.077Z,6.30
2022-11-03T07:06:24.752Z,6.30
2022-11-03T07:08:55.491Z,6.30
2022-11-03T07:11:27.797Z,6.30
2022-11-03T07:14:02.837Z,6.30
2022-11-03T07:16:36.915Z,6.30
2022-11-03T07:19:10.063Z,6.40
2022-11-03T07:21:43.986Z,6.50
2022-11-03T07:24:22.279Z,6.50
2022-11-03T07:26:53.903Z,6.60
2022-11-03T07:29:25.069Z,6.60
2022-11-03T07:31:53.342Z,6.60
2022-11-03T07:34:23.571Z,6.70
2022-11-03T07:36:55.582Z,6.50
2022-11-03T07:39:22.913Z,6.60
2022-11-03T07:41:50.972Z,6.70
2022-11-03T07:44:20.815Z,6.80
2022-11-03T07:46:48.953Z,6.80
2022-11-03T07:49:29.068Z,6.90
2022-11-03T07:51:58.951Z,6.90
2022-11-03T07:54:30.300Z,6.70
2022-11-03T07:57:00.723Z,6.40
2022-11-03T07:59:41.932Z,6.40
2022-11-03T08:02:29.819Z,6.60
2022-11-03T08:04:56.846Z,6.80
2022-11-03T08:07:23.529Z,6.90
2022-11-03T08:09:51.059Z,7.00
2022-11-03T08:12:17.799Z,7.20
2022-11-03T08:14:44.523Z,7.10
2022-11-03T08:17:11.316Z,7.20
2022-11-03T08:19:38.165Z,7.20
2022-11-03T08:22:04.879Z,7.30
2022-11-03T08:24:31.661Z,7.30
2022-11-03T08:26:58.432Z,7.20
2022-11-03T08:29:27.299Z,7.20
2022-11-03T08:31:54.619Z,7.30
2022-11-03T08:34:21.548Z,7.50
2022-11-03T08:36:48.269Z,7.60
2022-11-03T08:39:15.093Z,7.70
2022-11-03T08:41:41.832Z,7.80
2022-11-03T08:44:08.620Z,7.70
2022-11-03T08:46:35.377Z,7.70
2022-11-03T08:49:02.620Z,7.70
2022-11-03T08:51:29.364Z,7.70
2022-11-03T08:53:56.040Z,7.90
2022-11-03T08:56:23.115Z,8.00
2022-11-03T08:58:50.280Z,7.80
2022-11-03T09:01:17.125Z,7.80
2022-11-03T09:03:44.137Z,7.80
2022-11-03T09:06:11.099Z,8.00
2022-11-03T09:11:24.558Z,8.30
2022-11-03T09:13:51.373Z,8.50
2022-11-03T09:16:18.246Z,8.70
2022-11-03T09:18:45.527Z,8.80
2022-11-03T09:21:13.459Z,8.80
2022-11-03T09:23:40.451Z,8.90
2022-11-03T09:26:07.227Z,9.00
2022-11-03T09:28:34.004Z,9.10
2022-11-03T09:31:00.736Z,9.10
2022-11-03T09:33:27.594Z,9.10
2022-11-03T09:35:54.359Z,9.00
2022-11-03T09:38:21.063Z,9.10
2022-11-03T09:43:19.902Z,9.20
2022-11-03T09:45:46.766Z,9.30
2022-11-03T09:48:14.142Z,9.30
2022-11-03T09:50:41.544Z,9.20
2022-11-03T09:53:12.572Z,9.20
2022-11-03T09:55:40.065Z,9.40
2022-11-03T09:58:17.974Z,9.40
2022-11-03T10:00:45.568Z,9.40
2022-11-03T10:03:13.769Z,9.20
2022-11-03T10:05:42.223Z,9.20
2022-11-03T10:08:22.616Z,9.20
2022-11-03T10:10:51.295Z,9.50
2022-11-03T10:13:30.056Z,9.70
2022-11-03T10:15:59.935Z,9.70
2022-11-03T10:18:27.952Z,9.80
2022-11-03T10:20:55.258Z,10.00
2022-11-03T10:23:22.089Z,9.70
2022-11-03T10:25:48.918Z,9.90
2022-11-03T10:28:18.547Z,10.10
2022-11-03T10:31:10.127Z,10.20
2022-11-03T10:33:52.051Z,10.20
2022-11-03T10:36:18.903Z,10.20
2022-11-03T10:38:47.257Z,10.20
2022-11-03T10:41:26.955Z,10.10
2022-11-03T10:44:11.621Z,10.10
2022-11-03T10:46:55.269Z,10.20
2022-11-03T10:49:22.187Z,10.40
2022-11-03T10:51:54.006Z,10.40
2022-11-03T10:54:23.489Z,10.50
2022-11-03T10:56:51.939Z,10.50
2022-11-03T10:59:27.409Z,10.40
2022-11-03T11:01:54.741Z,10.50
2022-11-03T11:04:21.946Z,10.40
2022-11-03T11:06:49.377Z,10.40
2022-11-03T11:09:26.808Z,10.40
2022-11-03T11:12:04.288Z,10.50
2022-11-03T11:14:34.658Z,10.60
2022-11-03T11:17:01.991Z,10.70
2022-11-03T11:19:29.939Z,10.80
2022-11-03T11:21:56.587Z,11.00
2022-11-03T11:24:44.935Z,11.00
2022-11-03T11:27:33.357Z,11.00
2022-11-03T11:30:01.797Z,11.00
2022-11-03T11:32:47.706Z,10.90
2022-11-03T11:35:22.241Z,11.00
2022-11-03T11:37:49.186Z,11.10
2022-11-03T11:40:25.226Z,11.20
2022-11-03T11:43:07.151Z,11.30
2022-11-03T11:46:11.938Z,11.40
2022-11-03T11:48:38.652Z,11.60
2022-11-03T11:51:10.778Z,11.80
2022-11-03T11:53:42.617Z,11.90
2022-11-03T11:56:12.841Z,12.00
2022-11-03T11:58:46.430Z,12.10
2022-11-03T12:01:32.730Z,12.20
2022-11-03T12:04:05.877Z,12.30
2022-11-03T12:06:40.526Z,12.30
2022-11-03T12:09:15.379Z,12.20
2022-11-03T12:11:56.458Z,12.20
2022-11-03T12:14:37.869Z,12.20
2022-11-03T12:17:24.783Z,12.30
2022-11-03T12:19:53.265Z,12.50
2022-11-03T12:22:29.236Z,12.60
2022-11-03T12:24:57.881Z,12.70
2022-11-03T12:27:24.511Z,12.60
2022-11-03T12:29:59.498Z,12.70
2022-11-03T12:32:33.480Z,12.60
2022-11-03T12:35:08.227Z,12.60
2022-11-03T12:37:35.274Z,12.40
2022-11-03T12:40:02.064Z,12.50
2022-11-03T12:42:28.828Z,12.40
2022-11-03T12:44:56.071Z,12.20
2022-11-03T12:47:22.841Z,11.90
2022-11-03T12:49:49.629Z,12.00
2022-11-03T12:52:16.454Z,11.90
2022-11-03T12:54:43.265Z,11.60
2022-11-03T12:57:09.960Z,11.30
2022-11-03T12:59:36.974Z,11.10
2022-11-03T13:02:04.048Z,11.10
2022-11-03T13:04:30.943Z,11.00
2022-11-03T13:06:57.703Z,11.00
2022-11-03T13:09:24.390Z,10.80
2022-11-03T13:12:09.771Z,10.80
2022-11-03T13:14:36.581Z,11.00
2022-11-03T13:17:03.907Z,11.10
2022-11-03T13:19:30.887Z,11.00
2022-11-03T13:21:57.914Z,11.00
2022-11-03T13:24:24.689Z,10.90
2022-11-03T13:26:52.104Z,10.80
2022-11-03T13:29:18.936Z,10.80
2022-11-03T13:31:45.617Z,10.90
2022-11-03T13:34:12.333Z,10.80
2022-11-03T13:36:39.721Z,10.80
2022-11-03T13:39:06.496Z,10.90
2022-11-03T13:41:33.225Z,11.00
2022-11-03T13:44:00.086Z,11.10
2022-11-03T13:46:26.809Z,11.10
2022-11-03T13:49:51.168Z,11.00
2022-11-03T13:51:40.746Z,11.10
2022-11-03T13:59:41.119Z,11.40
2022-11-03T14:04:54.717Z,11.50
2022-11-03T14:07:21.478Z,11.50
2022-11-03T14:09:48.333Z,11.50
2022-11-03T14:12:34.545Z,11.50
2022-11-03T14:15:05.121Z,11.60
2022-11-03T14:17:32.354Z,11.60
2022-11-03T14:20:03.790Z,11.70
2022-11-03T14:22:31.681Z,11.90
2022-11-03T14:24:58.509Z,11.90
2022-11-03T14:27:25.358Z,11.80
2022-11-03T14:29:52.231Z,11.90
2022-11-03T14:32:19.995Z,11.70
2022-11-03T14:34:47.996Z,11.60
2022-11-03T14:37:15.824Z,11.70
2022-11-03T14:39:42.680Z,11.70
2022-11-03T14:42:15.997Z,11.70
2022-11-03T14:44:44.669Z,11.70
2022-11-03T14:47:21.790Z,11.60
2022-11-03T14:49:49.475Z,11.50
2022-11-03T14:52:17.284Z,11.50
2022-11-03T14:54:44.235Z,11.50
2022-11-03T14:57:11.022Z,11.50
2022-11-03T14:59:38.081Z,11.60
2022-11-03T15:02:06.081Z,11.40
2022-11-03T15:04:33.267Z,11.30
2022-11-03T15:07:00.008Z,11.20
2022-11-03T15:09:26.830Z,11.20
2022-11-03T15:11:53.662Z,11.20
2022-11-03T15:14:20.485Z,11.20
2022-11-03T15:16:48.049Z,11.20
2022-11-03T15:19:14.881Z,11.10
2022-11-03T15:21:41.664Z,11.20
2022-11-03T15:26:55.331Z,11.10
2022-11-03T15:29:23.977Z,11.00
2022-11-03T15:31:51.088Z,10.90
2022-11-03T15:34:18.287Z,10.90
2022-11-03T15:36:45.231Z,10.80
2022-11-03T15:39:13.192Z,10.80
2022-11-03T15:41:39.931Z,10.80
2022-11-03T15:44:06.650Z,10.80
2022-11-03T15:46:33.617Z,10.70
2022-11-03T15:49:00.660Z,10.70
2022-11-03T15:51:27.417Z,10.70
2022-11-03T15:53:58.427Z,10.70
2022-11-03T15:56:26.826Z,10.70
2022-11-03T15:58:53.697Z,10.70
2022-11-03T16:01:20.624Z,10.70
2022-11-03T16:03:47.688Z,10.60
2022-11-03T16:06:14.435Z,10.60
2022-11-03T16:08:41.262Z,10.60
2022-11-03T16:11:09.142Z,10.60
2022-11-03T16:13:36.169Z,10.60
2022-11-03T16:16:03.266Z,10.50
2022-11-03T16:18:30.214Z,10.50
2022-11-03T16:20:56.948Z,10.40
2022-11-03T16:23:23.731Z,10.40
2022-11-03T16:25:50.493Z,10.40
2022-11-03T16:28:17.248Z,10.30
2022-11-03T16:30:43.933Z,10.30
2022-11-03T16:33:10.933Z,10.30
2022-11-03T16:35:37.626Z,10.40
2022-11-03T16:38:04.546Z,10.30
2022-11-03T16:40:31.387Z,10.40
2022-11-03T16:42:58.067Z,10.40
2022-11-03T16:45:33.526Z,10.40
2022-11-03T16:48:03.524Z,10.40
2022-11-03T16:50:30.285Z,10.40
2022-11-03T16:52:57.133Z,10.40
2022-11-03T16:55:23.893Z,10.40
2022-11-03T16:57:50.691Z,10.40
2022-11-03T17:00:20.213Z,10.40
2022-11-03T17:02:47.700Z,10.40
2022-11-03T17:05:16.664Z,10.50
2022-11-03T17:07:45.384Z,10.50
2022-11-03T17:10:15.479Z,10.60
2022-11-03T17:12:42.169Z,10.70
2022-11-03T17:15:09.391Z,10.70
2022-11-03T17:17:36.190Z,10.70
2022-11-03T17:20:03.200Z,10.70
2022-11-03T17:22:29.891Z,10.70
2022-11-03T17:24:56.592Z,10.60
2022-11-03T17:27:48.632Z,10.70
2022-11-03T17:30:24.164Z,10.70
2022-11-03T17:32:55.679Z,10.80
2022-11-03T17:35:39.229Z,10.80
2022-11-03T17:38:13.970Z,10.90
2022-11-03T17:40:42.795Z,10.90
2022-11-03T17:43:26.996Z,11.00
2022-11-03T17:45:54.426Z,10.90
2022-11-03T17:48:23.197Z,11.00
2022-11-03T17:50:53.388Z,11.10
2022-11-03T17:53:33.883Z,11.10
2022-11-03T17:56:31.568Z,11.10
2022-11-03T17:58:49.362Z,11.10
2022-11-03T18:01:25.051Z,11.10
2022-11-03T18:03:55.210Z,11.10
2022-11-03T18:06:22.104Z,11.10
2022-11-03T18:08:49.648Z,11.00
2022-11-03T18:11:42.017Z,11.10
2022-11-03T18:14:08.735Z,11.10
2022-11-03T18:16:35.538Z,11.20
2022-11-03T18:19:02.308Z,11.20
2022-11-03T18:21:30.181Z,11.20
2022-11-03T18:23:56.962Z,11.30
2022-11-03T18:26:25.950Z,11.30
2022-11-03T18:28:53.977Z,11.30
2022-11-03T18:31:34.001Z,11.30
2022-11-03T18:34:05.271Z,11.20
2022-11-03T18:36:35.145Z,11.20
2022-11-03T18:39:02.609Z,11.20
2022-11-03T18:41:39.159Z,11.20
2022-11-03T18:44:21.335Z,11.20
2022-11-03T18:46:48.985Z,11.20
2022-11-03T18:49:16.239Z,11.10
2022-11-03T18:51:49.851Z,11.20
2022-11-03T18:54:23.128Z,11.20
2022-11-03T18:56:51.709Z,11.20
2022-11-03T18:59:20.781Z,11.20
2022-11-03T19:01:47.649Z,11.20
2022-11-03T19:04:15.238Z,11.20
2022-11-03T19:06:44.526Z,11.30
2022-11-03T19:09:17.278Z,11.30
2022-11-03T19:11:44.343Z,11.30
2022-11-03T19:14:20.420Z,11.40
2022-11-03T19:17:02.145Z,11.30
2022-11-03T19:22:17.996Z,11.30
2022-11-03T19:24:45.421Z,11.30
2022-11-03T19:27:25.784Z,11.30
2022-11-03T19:29:53.394Z,11.30
2022-11-03T19:32:24.772Z,11.40
2022-11-03T19:34:58.953Z,11.40
2022-11-03T19:37:28.773Z,11.40
2022-11-03T19:40:00.212Z,11.40
2022-11-03T19:42:31.461Z,11.40
2022-11-03T19:45:00.018Z,11.40
2022-11-03T19:47:32.585Z,11.40
2022-11-03T19:50:01.824Z,11.40
2022-11-03T19:52:31.068Z,11.40
2022-11-03T19:54:58.507Z,11.40
2022-11-03T19:57:25.326Z,11.50
2022-11-03T19:59:52.130Z,11.40
2022-11-03T20:02:18.991Z,11.40
2022-11-03T20:04:47.365Z,11.40
2022-11-03T20:07:16.470Z,11.30
2022-11-03T20:09:44.095Z,11.30
2022-11-03T20:12:15.824Z,11.30
2022-11-03T20:14:42.528Z,11.30
2022-11-03T20:17:15.187Z,11.30
2022-11-03T20:19:41.988Z,11.20
2022-11-03T20:22:15.974Z,11.30
2022-11-03T20:24:44.940Z,11.20
2022-11-03T20:27:12.252Z,11.20
2022-11-03T20:29:40.190Z,11.30
2022-11-03T20:32:07.389Z,11.40
2022-11-03T20:34:34.133Z,11.30
2022-11-03T20:37:04.558Z,11.20
2022-11-03T20:39:32.968Z,11.00
2022-11-03T20:41:59.914Z,11.10
2022-11-03T20:44:26.705Z,11.20
2022-11-03T20:46:53.431Z,11.20
2022-11-03T20:49:21.618Z,11.20
2022-11-03T20:51:51.249Z,11.30
2022-11-03T20:54:19.966Z,11.30
2022-11-03T20:56:47.463Z,11.30
2022-11-03T20:59:17.665Z,11.30
2022-11-03T21:01:45.027Z,11.30
2022-11-03T21:04:15.034Z,11.30
2022-11-03T21:06:42.570Z,11.30
2022-11-03T21:09:17.845Z,11.40
2022-11-03T21:11:45.612Z,11.40
2022-11-03T21:14:27.887Z,11.40
2022-11-03T21:17:13.368Z,11.40
2022-11-03T21:19:58.488Z,11.40
2022-11-03T21:25:21.696Z,11.50
2022-11-03T21:27:49.724Z,11.50
2022-11-03T21:30:17.578Z,11.60
2022-11-03T21:32:44.500Z,11.60
2022-11-03T21:35:16.496Z,11.40
2022-11-03T21:37:43.243Z,11.30
2022-11-03T21:40:10.635Z,11.20
2022-11-03T21:42:56.225Z,11.30
2022-11-03T21:45:23.166Z,11.30
2022-11-03T21:48:13.105Z,11.40
2022-11-03T21:50:40.157Z,11.40
2022-11-03T21:53:07.304Z,11.50
2022-11-03T21:55:34.474Z,11.50
2022-11-03T21:58:02.488Z,11.50
2022-11-03T22:00:29.342Z,11.60
2022-11-03T22:02:56.289Z,11.60
2022-11-03T22:05:23.034Z,11.50
2022-11-03T22:07:49.775Z,11.50
2022-11-03T22:10:17.828Z,11.50
2022-11-03T22:12:44.704Z,11.50
2022-11-03T22:15:30.463Z,11.50
2022-11-03T22:18:04.593Z,11.50
2022-11-03T22:20:50.164Z,11.50
2022-11-03T22:23:35.497Z,11.50
2022-11-03T22:26:20.921Z,11.50
2022-11-03T22:29:07.749Z,11.60
2022-11-03T22:31:40.726Z,11.60
2022-11-03T22:34:26.103Z,11.60
2022-11-03T22:36:52.835Z,11.50
2022-11-03T22:39:38.351Z,11.60
2022-11-03T22:42:23.781Z,11.60
2022-11-03T22:45:09.213Z,11.50
2022-11-03T22:47:35.982Z,11.50
2022-11-03T22:50:02.791Z,11.50
2022-11-03T22:52:29.515Z,11.50
2022-11-03T22:54:56.305Z,11.40
2022-11-03T22:57:23.402Z,11.30
2022-11-03T22:59:50.140Z,11.20
2022-11-03T23:02:16.916Z,11.10
2022-11-03T23:04:43.695Z,11.10
2022-11-03T23:07:10.473Z,11.00
2022-11-03T23:09:37.274Z,11.10
2022-11-03T23:12:04.422Z,11.10
2022-11-03T23:14:51.238Z,11.00
2022-11-03T23:17:17.943Z,11.00
2022-11-03T23:20:03.201Z,11.00
2022-11-03T23:22:29.928Z,11.00
2022-11-03T23:24:59.517Z,11.00
2022-11-03T23:27:26.398Z,11.10
2022-11-03T23:29:53.162Z,11.10
2022-11-03T23:32:19.871Z,11.10
2022-11-03T23:34:46.648Z,11.10
2022-11-03T23:37:13.321Z,11.10
2022-11-03T23:39:40.024Z,11.10
2022-11-03T23:42:07.171Z,11.20
2022-11-03T23:44:53.834Z,11.20
2022-11-03T23:47:39.244Z,11.20
2022-11-03T23:50:06.368Z,11.20
2022-11-03T23:52:33.073Z,11.30
2022-11-03T23:54:59.779Z,11.20
2022-11-03T23:57:45.236Z,11.20
